createdAt,value
2022-11-29T00:01:33.551Z,12.68
2022-11-29T00:04:01.803Z,14.45
2022-11-29T00:06:31.489Z,14.73
2022-11-29T00:09:03.085Z,11.93
2022-11-29T00:11:51.492Z,14.55
2022-11-29T00:14:20.717Z,13.45
2022-11-29T00:16:51.875Z,12.55
2022-11-29T00:19:23.304Z,12.80
2022-11-29T00:21:51.756Z,13.43
2022-11-29T00:24:21.607Z,14.38
2022-11-29T00:26:49.640Z,13.10
2022-11-29T00:29:18.417Z,14.13
2022-11-29T00:31:46.930Z,11.95
2022-11-29T00:34:14.849Z,12.55
2022-11-29T00:36:43.343Z,12.98
2022-11-29T00:39:12.636Z,11.98
2022-11-29T00:41:42.435Z,13.38
2022-11-29T00:44:15.309Z,12.52
2022-11-29T00:46:46.877Z,11.93
2022-11-29T00:49:15.348Z,10.50
2022-11-29T00:51:43.473Z,11.65
2022-11-29T00:54:11.753Z,11.70
2022-11-29T00:56:40.730Z,12.60
2022-11-29T00:59:11.349Z,11.50
2022-11-29T01:01:39.785Z,11.57
2022-11-29T01:04:08.457Z,10.32
2022-11-29T01:06:36.781Z,12.25
2022-11-29T01:09:04.949Z,11.32
2022-11-29T01:11:33.494Z,11.65
2022-11-29T01:14:02.414Z,10.55
2022-11-29T01:16:32.812Z,11.68
2022-11-29T01:19:01.017Z,10.48
2022-11-29T01:21:30.448Z,12.18
2022-11-29T01:23:59.029Z,11.27
2022-11-29T01:26:28.777Z,11.60
2022-11-29T01:28:57.835Z,10.80
2022-11-29T01:31:27.760Z,10.82
2022-11-29T01:33:57.979Z,11.88
2022-11-29T01:36:26.658Z,11.18
2022-11-29T01:38:55.843Z,11.80
2022-11-29T01:41:25.562Z,10.73
2022-11-29T01:43:55.623Z,11.13
2022-11-29T01:46:24.249Z,9.90
2022-11-29T01:48:56.353Z,10.10
2022-11-29T01:51:26.747Z,10.63
2022-11-29T01:53:55.165Z,11.57
2022-11-29T01:56:24.003Z,10.40
2022-11-29T01:58:52.975Z,11.82
2022-11-29T02:01:21.443Z,11.13
2022-11-29T02:03:49.961Z,10.57
2022-11-29T02:06:18.379Z,10.82
2022-11-29T02:08:48.247Z,11.00
2022-11-29T02:11:26.454Z,10.95
2022-11-29T02:14:04.143Z,12.43
2022-11-29T02:16:35.609Z,10.57
2022-11-29T02:19:06.796Z,11.35
2022-11-29T02:21:39.690Z,11.40
2022-11-29T02:24:16.218Z,11.32
2022-11-29T02:27:02.197Z,10.55
2022-11-29T02:29:48.791Z,11.00
2022-11-29T02:32:50.283Z,11.05
2022-11-29T02:35:25.490Z,10.20
2022-11-29T02:40:32.817Z,10.10
2022-11-29T02:43:11.657Z,9.40
2022-11-29T02:45:51.756Z,10.75
2022-11-29T02:48:30.382Z,10.35
2022-11-29T02:51:02.922Z,9.93
2022-11-29T02:53:34.641Z,10.73
2022-11-29T02:56:07.975Z,11.35
2022-11-29T02:58:38.290Z,10.90
2022-11-29T03:01:10.808Z,11.10
2022-11-29T03:03:41.862Z,12.20
2022-11-29T03:06:16.368Z,12.65
2022-11-29T03:08:49.289Z,11.45
2022-11-29T03:11:21.716Z,12.65
2022-11-29T03:13:53.683Z,12.40
2022-11-29T03:16:30.565Z,11.60
2022-11-29T03:19:06.438Z,12.18
2022-11-29T03:21:41.967Z,13.15
2022-11-29T03:24:15.575Z,11.75
2022-11-29T03:26:46.094Z,12.65
2022-11-29T03:29:18.358Z,11.98
2022-11-29T03:31:49.044Z,12.80
2022-11-29T03:34:21.893Z,12.27
2022-11-29T03:36:55.193Z,12.88
2022-11-29T03:39:30.055Z,15.57
2022-11-29T03:42:01.264Z,15.90
2022-11-29T03:44:33.112Z,14.52
2022-11-29T03:47:05.292Z,14.38
2022-11-29T03:49:37.282Z,15.18
2022-11-29T03:52:11.892Z,14.00
2022-11-29T03:54:48.512Z,15.05
2022-11-29T03:57:19.617Z,14.50
2022-11-29T03:59:53.523Z,13.20
2022-11-29T04:02:31.163Z,14.13
2022-11-29T04:05:14.651Z,14.73
2022-11-29T04:07:50.427Z,12.88
2022-11-29T04:10:21.621Z,14.43
2022-11-29T04:13:00.699Z,13.25
2022-11-29T04:15:39.329Z,12.75
2022-11-29T04:18:25.382Z,12.63
2022-11-29T04:21:11.892Z,12.13
2022-11-29T04:23:57.790Z,11.18
2022-11-29T04:26:50.613Z,11.93
2022-11-29T04:29:36.719Z,11.98
2022-11-29T04:32:15.823Z,11.55
2022-11-29T04:34:58.153Z,11.45
2022-11-29T04:37:36.959Z,11.20
2022-11-29T04:40:11.877Z,10.63
2022-11-29T04:42:52.797Z,10.63
2022-11-29T04:45:54.236Z,11.38
2022-11-29T04:48:32.717Z,12.32
2022-11-29T04:51:08.225Z,10.77
2022-11-29T04:53:48.783Z,11.15
2022-11-29T04:56:22.134Z,11.88
2022-11-29T04:58:54.742Z,12.98
2022-11-29T05:01:27.036Z,12.73
2022-11-29T05:04:00.707Z,12.38
2022-11-29T05:06:30.679Z,11.00
2022-11-29T05:09:05.217Z,11.73
2022-11-29T05:11:44.315Z,12.43
2022-11-29T05:14:21.353Z,12.43
2022-11-29T05:16:56.125Z,12.15
2022-11-29T05:19:39.557Z,11.93
2022-11-29T05:22:14.837Z,12.52
2022-11-29T05:24:53.989Z,11.38
2022-11-29T05:27:30.455Z,11.90
2022-11-29T05:30:10.295Z,11.20
2022-11-29T05:32:43.930Z,11.32
2022-11-29T05:35:51.015Z,12.38
2022-11-29T05:38:30.818Z,12.40
2022-11-29T05:41:04.956Z,12.57
2022-11-29T05:43:46.499Z,15.63
2022-11-29T05:46:21.590Z,13.50
2022-11-29T05:48:55.852Z,11.68
2022-11-29T05:51:29.301Z,17.33
2022-11-29T05:54:02.527Z,48.30
2022-11-29T05:56:40.137Z,28.40
2022-11-29T05:59:10.177Z,30.38
2022-11-29T06:01:44.046Z,26.55
2022-11-29T06:04:18.427Z,24.42
2022-11-29T06:07:07.014Z,17.50
2022-11-29T06:09:41.510Z,17.58
2022-11-29T06:12:21.204Z,17.15
2022-11-29T06:15:05.509Z,14.38
2022-11-29T06:17:49.994Z,15.00
2022-11-29T06:20:44.571Z,17.50
2022-11-29T06:23:29.292Z,14.05
2022-11-29T06:26:08.805Z,16.63
2022-11-29T06:28:55.399Z,15.93
2022-11-29T06:31:39.535Z,15.40
2022-11-29T06:34:33.132Z,15.40
2022-11-29T06:37:19.073Z,15.73
2022-11-29T06:40:16.086Z,20.92
2022-11-29T06:42:59.782Z,20.33
2022-11-29T06:46:01.094Z,23.38
2022-11-29T06:48:46.225Z,21.77
2022-11-29T06:51:38.572Z,19.67
2022-11-29T06:54:21.711Z,21.55
2022-11-29T06:57:43.794Z,23.17
2022-11-29T07:00:34.752Z,18.17
2022-11-29T07:03:41.764Z,20.55
2022-11-29T07:06:13.561Z,20.15
2022-11-29T07:08:44.856Z,18.35
2022-11-29T07:11:16.758Z,18.63
2022-11-29T07:13:49.332Z,20.50
2022-11-29T07:16:24.576Z,21.05
2022-11-29T07:18:58.826Z,19.67
2022-11-29T07:21:35.913Z,22.90
2022-11-29T07:26:44.457Z,23.17
2022-11-29T07:29:20.585Z,22.92
2022-11-29T07:31:54.281Z,20.23
2022-11-29T07:34:42.566Z,19.27
2022-11-29T07:37:41.799Z,16.20
2022-11-29T07:44:04.772Z,13.50
2022-11-29T07:50:51.828Z,12.65
2022-11-29T07:53:38.218Z,12.95
2022-11-29T07:56:47.248Z,11.65
2022-11-29T07:59:31.165Z,13.27
2022-11-29T08:02:38.998Z,14.38
2022-11-29T08:13:14.137Z,10.00
2022-11-29T08:16:27.451Z,16.92
2022-11-29T08:20:04.894Z,14.68
2022-11-29T08:28:03.778Z,13.98
2022-11-29T08:29:32.082Z,17.08
2022-11-29T08:32:38.986Z,12.95
2022-11-29T08:35:26.127Z,12.50
2022-11-29T08:38:25.859Z,14.27
2022-11-29T08:41:24.341Z,15.18
2022-11-29T08:44:18.166Z,14.20
2022-11-29T08:47:26.000Z,15.82
2022-11-29T08:50:09.329Z,17.48
2022-11-29T08:53:10.227Z,16.70
2022-11-29T08:55:47.011Z,20.00
2022-11-29T08:58:20.636Z,17.85
2022-11-29T09:00:54.055Z,16.70
2022-11-29T09:03:40.498Z,19.27
2022-11-29T09:06:12.729Z,19.40
2022-11-29T09:08:46.968Z,17.67
2022-11-29T09:11:17.696Z,18.00
2022-11-29T09:13:54.160Z,17.77
2022-11-29T09:16:36.534Z,17.35
2022-11-29T09:19:12.021Z,17.83
2022-11-29T09:21:44.371Z,17.52
2022-11-29T09:24:17.356Z,18.05
2022-11-29T09:26:51.363Z,17.77
2022-11-29T09:29:22.652Z,16.90
2022-11-29T09:31:55.369Z,16.00
2022-11-29T09:34:27.874Z,15.57
2022-11-29T09:36:58.547Z,16.75
2022-11-29T09:39:32.607Z,16.92
2022-11-29T09:42:10.525Z,18.45
2022-11-29T09:44:46.557Z,15.68
2022-11-29T09:47:21.569Z,17.48
2022-11-29T09:50:08.861Z,14.57
2022-11-29T09:52:43.720Z,15.38
2022-11-29T09:55:25.207Z,15.10
2022-11-29T09:57:57.955Z,13.30
2022-11-29T10:00:30.158Z,14.98
2022-11-29T10:03:00.622Z,14.65
2022-11-29T10:05:30.616Z,15.60
2022-11-29T10:08:03.779Z,14.52
2022-11-29T10:10:38.007Z,14.55
2022-11-29T10:13:09.385Z,14.60
2022-11-29T10:15:40.328Z,17.27
2022-11-29T10:18:14.515Z,15.93
2022-11-29T10:20:49.515Z,15.70
2022-11-29T10:23:22.778Z,16.85
2022-11-29T10:25:59.681Z,15.63
2022-11-29T10:28:34.431Z,15.88
2022-11-29T10:31:07.166Z,15.50
2022-11-29T10:33:41.694Z,15.02
2022-11-29T10:36:17.019Z,15.85
2022-11-29T10:38:46.430Z,17.42
2022-11-29T10:41:20.043Z,15.30
2022-11-29T10:43:48.697Z,13.75
2022-11-29T10:46:26.501Z,20.75
2022-11-29T10:49:02.054Z,13.77
2022-11-29T10:51:36.736Z,15.38
2022-11-29T10:54:23.414Z,14.93
2022-11-29T10:56:59.977Z,15.63
2022-11-29T11:00:22.509Z,14.73
2022-11-29T11:02:28.562Z,13.65
2022-11-29T11:05:06.797Z,14.27
2022-11-29T11:07:49.471Z,13.63
2022-11-29T11:10:33.974Z,13.27
2022-11-29T11:13:12.881Z,14.77
2022-11-29T11:15:50.935Z,13.60
2022-11-29T11:18:24.586Z,14.65
2022-11-29T11:20:54.329Z,13.90
2022-11-29T11:23:25.373Z,13.45
2022-11-29T11:25:59.936Z,15.52
2022-11-29T11:28:32.575Z,14.23
2022-11-29T11:31:03.224Z,14.45
2022-11-29T11:33:32.952Z,14.60
2022-11-29T11:36:06.183Z,14.38
2022-11-29T11:38:35.082Z,15.63
2022-11-29T11:41:10.232Z,13.82
2022-11-29T11:43:40.915Z,15.27
2022-11-29T11:46:10.057Z,15.32
2022-11-29T11:48:42.147Z,13.80
2022-11-29T11:51:16.023Z,13.80
2022-11-29T11:53:44.625Z,14.50
2022-11-29T11:56:14.625Z,15.07
2022-11-29T11:58:49.335Z,14.45
2022-11-29T12:01:18.517Z,14.00
2022-11-29T12:03:51.445Z,14.65
2022-11-29T12:06:31.151Z,14.48
2022-11-29T12:09:04.113Z,15.68
2022-11-29T12:11:35.426Z,14.75
2022-11-29T12:14:06.869Z,14.27
2022-11-29T12:16:35.974Z,14.65
2022-11-29T12:19:06.363Z,15.25
2022-11-29T12:21:38.075Z,14.57
2022-11-29T12:24:13.351Z,14.85
2022-11-29T12:26:56.960Z,14.02
2022-11-29T12:29:30.705Z,15.60
2022-11-29T12:32:03.863Z,15.27
2022-11-29T12:34:42.381Z,22.15
2022-11-29T12:37:13.669Z,13.98
2022-11-29T12:39:48.552Z,14.27
2022-11-29T12:42:22.795Z,15.85
2022-11-29T12:44:57.729Z,14.98
2022-11-29T12:47:36.053Z,14.18
2022-11-29T12:50:14.582Z,12.90
2022-11-29T12:52:46.917Z,13.27
2022-11-29T12:55:20.718Z,13.63
2022-11-29T12:57:54.664Z,13.68
2022-11-29T13:00:26.001Z,14.15
2022-11-29T13:02:58.296Z,14.00
2022-11-29T13:05:32.251Z,14.18
2022-11-29T13:08:05.026Z,13.63
2022-11-29T13:10:40.868Z,13.70
2022-11-29T13:13:15.275Z,14.07
2022-11-29T13:15:47.445Z,14.85
2022-11-29T13:18:22.410Z,15.75
2022-11-29T13:20:54.691Z,15.63
2022-11-29T13:23:46.213Z,13.75
2022-11-29T13:26:17.337Z,14.98
2022-11-29T13:28:46.476Z,15.60
2022-11-29T13:31:20.283Z,14.82
2022-11-29T13:33:56.685Z,16.50
2022-11-29T13:36:30.446Z,16.95
2022-11-29T13:39:03.231Z,14.60
2022-11-29T13:41:33.423Z,15.13
2022-11-29T13:44:07.763Z,14.13
2022-11-29T13:46:42.891Z,14.32
2022-11-29T13:49:20.940Z,15.57
2022-11-29T13:51:49.658Z,15.82
2022-11-29T13:54:29.689Z,16.17
2022-11-29T13:57:05.394Z,15.38
2022-11-29T13:59:35.090Z,17.65
2022-11-29T14:02:06.408Z,17.52
2022-11-29T14:04:37.156Z,17.40
2022-11-29T14:07:07.078Z,17.48
2022-11-29T14:09:37.187Z,18.65
2022-11-29T14:12:07.108Z,17.55
2022-11-29T14:14:38.877Z,17.92
2022-11-29T14:17:31.362Z,19.08
2022-11-29T14:20:14.682Z,18.42
2022-11-29T14:23:14.641Z,18.77
2022-11-29T14:25:52.454Z,20.33
2022-11-29T14:28:30.675Z,21.70
2022-11-29T14:31:01.748Z,22.43
2022-11-29T14:33:48.499Z,22.30
2022-11-29T14:36:26.869Z,20.10
2022-11-29T14:39:00.289Z,20.00
2022-11-29T14:41:33.184Z,19.15
2022-11-29T14:44:15.606Z,18.80
2022-11-29T14:46:44.362Z,18.27
2022-11-29T14:49:22.065Z,17.98
2022-11-29T14:52:05.725Z,17.63
2022-11-29T14:54:36.178Z,17.63
2022-11-29T14:57:23.273Z,17.70
2022-11-29T14:59:53.982Z,17.73
2022-11-29T15:02:29.345Z,17.73
2022-11-29T15:04:58.308Z,16.98
2022-11-29T15:07:31.378Z,18.65
2022-11-29T15:10:02.501Z,17.17
2022-11-29T15:12:35.334Z,17.80
2022-11-29T15:15:09.343Z,16.92
2022-11-29T15:17:43.240Z,18.77
2022-11-29T15:20:32.445Z,17.63
2022-11-29T15:23:03.477Z,16.77
2022-11-29T15:25:33.839Z,19.92
2022-11-29T15:28:03.223Z,17.52
2022-11-29T15:30:33.216Z,18.10
2022-11-29T15:33:05.535Z,17.55
2022-11-29T15:35:34.424Z,19.48
2022-11-29T15:38:03.958Z,18.13
2022-11-29T15:40:37.219Z,18.52
2022-11-29T15:43:15.018Z,22.02
2022-11-29T15:45:47.930Z,20.92
2022-11-29T15:48:23.561Z,19.90
2022-11-29T15:50:55.130Z,20.38
2022-11-29T15:53:26.954Z,19.88
2022-11-29T15:55:58.607Z,21.73
2022-11-29T15:58:29.576Z,21.20
2022-11-29T16:00:59.517Z,20.92
2022-11-29T16:03:30.132Z,21.38
2022-11-29T16:06:02.352Z,19.77
2022-11-29T16:08:35.452Z,21.67
2022-11-29T16:11:07.193Z,21.42
2022-11-29T16:13:38.092Z,19.42
2022-11-29T16:16:08.522Z,23.33
2022-11-29T16:18:41.123Z,23.85
2022-11-29T16:21:22.471Z,23.23
2022-11-29T16:23:51.025Z,21.67
2022-11-29T16:26:26.686Z,22.30
2022-11-29T16:28:56.468Z,22.98
2022-11-29T16:31:26.915Z,22.42
2022-11-29T16:33:55.499Z,22.15
2022-11-29T16:36:27.413Z,21.75
2022-11-29T16:39:07.013Z,22.05
2022-11-29T16:41:38.535Z,22.15
2022-11-29T16:44:08.554Z,21.10
2022-11-29T16:46:41.054Z,22.02
2022-11-29T16:49:28.347Z,22.60
2022-11-29T16:51:57.500Z,21.63
2022-11-29T16:54:27.696Z,22.17
2022-11-29T16:56:59.517Z,23.00
2022-11-29T16:59:29.090Z,24.40
2022-11-29T17:01:58.597Z,31.67
2022-11-29T17:04:30.568Z,27.05
2022-11-29T17:06:59.890Z,26.90
2022-11-29T17:09:29.494Z,26.48
2022-11-29T17:12:01.098Z,26.25
2022-11-29T17:14:29.827Z,25.63
2022-11-29T17:17:00.729Z,26.08
2022-11-29T17:19:30.203Z,25.45
2022-11-29T17:21:58.935Z,31.45
2022-11-29T17:24:27.521Z,28.40
2022-11-29T17:26:55.656Z,26.88
2022-11-29T17:29:26.172Z,28.40
2022-11-29T17:31:54.787Z,28.35
2022-11-29T17:34:22.873Z,27.60
2022-11-29T17:36:51.893Z,30.05
2022-11-29T17:39:21.658Z,32.83
2022-11-29T17:41:50.133Z,29.27
2022-11-29T17:44:18.752Z,26.60
2022-11-29T17:46:48.937Z,24.90
2022-11-29T17:49:18.963Z,27.02
2022-11-29T17:51:52.657Z,26.48
2022-11-29T17:54:21.873Z,23.45
2022-11-29T17:56:53.032Z,25.67
2022-11-29T17:59:21.637Z,28.45
2022-11-29T18:01:54.856Z,44.58
2022-11-29T18:04:23.706Z,53.83
2022-11-29T18:06:54.984Z,65.13
2022-11-29T18:09:23.627Z,70.18
2022-11-29T18:11:53.028Z,72.68
2022-11-29T18:14:23.040Z,73.82
2022-11-29T18:16:51.984Z,78.30
2022-11-29T18:19:22.713Z,77.90
2022-11-29T18:21:53.779Z,74.60
2022-11-29T18:24:22.440Z,74.95
2022-11-29T18:26:50.792Z,78.63
2022-11-29T18:29:20.388Z,72.13
2022-11-29T18:31:50.393Z,71.90
2022-11-29T18:34:19.007Z,71.28
2022-11-29T18:36:49.783Z,65.78
2022-11-29T18:39:19.151Z,70.20
2022-11-29T18:41:47.867Z,65.00
2022-11-29T18:44:17.705Z,63.47
2022-11-29T18:46:46.642Z,62.75
2022-11-29T18:49:35.085Z,61.03
2022-11-29T18:52:05.175Z,58.33
2022-11-29T18:54:33.287Z,54.83
2022-11-29T18:57:01.873Z,46.05
2022-11-29T18:59:30.878Z,52.65
2022-11-29T19:01:59.145Z,18.02
2022-11-29T19:04:27.432Z,37.30
2022-11-29T19:06:56.101Z,44.55
2022-11-29T19:09:26.018Z,41.20
2022-11-29T19:11:54.177Z,44.53
2022-11-29T19:14:22.807Z,45.35
2022-11-29T19:16:51.240Z,32.08
2022-11-29T19:19:45.049Z,36.67
2022-11-29T19:22:13.304Z,16.02
2022-11-29T19:24:51.400Z,15.98
2022-11-29T19:27:21.319Z,28.13
2022-11-29T19:29:53.867Z,25.65
2022-11-29T19:32:22.231Z,12.80
2022-11-29T19:34:56.795Z,12.90
2022-11-29T19:37:25.242Z,14.63
2022-11-29T19:39:58.015Z,15.50
2022-11-29T19:42:32.355Z,18.52
2022-11-29T19:45:16.335Z,16.98
2022-11-29T19:47:44.990Z,17.27
2022-11-29T19:50:13.297Z,22.10
2022-11-29T19:52:41.919Z,44.03
2022-11-29T19:55:12.887Z,60.05
2022-11-29T19:57:41.324Z,59.00
2022-11-29T20:00:10.260Z,54.83
2022-11-29T20:02:39.132Z,54.65
2022-11-29T20:05:08.237Z,51.92
2022-11-29T20:07:36.759Z,42.00
2022-11-29T20:10:07.125Z,39.42
2022-11-29T20:12:37.689Z,32.90
2022-11-29T20:15:06.656Z,26.70
2022-11-29T20:17:37.386Z,29.55
2022-11-29T20:20:06.422Z,30.63
2022-11-29T20:22:38.377Z,29.88
2022-11-29T20:25:10.089Z,42.65
2022-11-29T20:27:40.025Z,65.22
2022-11-29T20:30:10.542Z,34.90
2022-11-29T20:32:39.199Z,55.85
2022-11-29T20:35:08.442Z,56.78
2022-11-29T20:37:47.657Z,46.35
2022-11-29T20:40:17.973Z,26.42
2022-11-29T20:43:04.090Z,19.58
2022-11-29T20:45:34.284Z,22.10
2022-11-29T20:48:05.509Z,24.60
2022-11-29T20:50:34.062Z,17.60
2022-11-29T20:53:11.221Z,15.52
2022-11-29T20:55:43.701Z,12.55
2022-11-29T20:58:16.141Z,12.18
2022-11-29T21:00:48.978Z,12.48
2022-11-29T21:03:17.952Z,11.50
2022-11-29T21:05:47.114Z,9.90
2022-11-29T21:08:16.656Z,10.55
2022-11-29T21:10:45.556Z,11.38
2022-11-29T21:13:15.044Z,12.18
2022-11-29T21:15:44.074Z,16.20
2022-11-29T21:18:21.469Z,14.90
2022-11-29T21:20:56.146Z,14.80
2022-11-29T21:23:30.768Z,16.75
2022-11-29T21:26:02.405Z,18.55
2022-11-29T21:28:33.835Z,20.65
2022-11-29T21:31:02.096Z,16.45
2022-11-29T21:33:34.561Z,9.63
2022-11-29T21:36:05.276Z,7.72
2022-11-29T21:38:33.564Z,7.88
2022-11-29T21:41:01.664Z,7.43
2022-11-29T21:43:57.911Z,5.97
2022-11-29T21:46:18.095Z,6.50
2022-11-29T21:48:47.833Z,6.53
2022-11-29T21:51:15.855Z,6.70
2022-11-29T21:53:43.907Z,22.88
2022-11-29T21:56:12.715Z,28.20
2022-11-29T21:58:41.512Z,20.85
2022-11-29T22:01:11.160Z,25.40
2022-11-29T22:03:39.511Z,24.27
2022-11-29T22:06:10.581Z,22.95
2022-11-29T22:08:40.025Z,19.33
2022-11-29T22:11:09.565Z,22.35
2022-11-29T22:13:58.158Z,19.88
2022-11-29T22:16:26.728Z,18.27
2022-11-29T22:18:55.312Z,18.15
2022-11-29T22:21:25.076Z,18.13
2022-11-29T22:23:53.459Z,19.40
2022-11-29T22:26:21.572Z,17.40
2022-11-29T22:28:49.998Z,16.15
2022-11-29T22:31:18.739Z,15.63
2022-11-29T22:33:46.844Z,17.77
2022-11-29T22:36:15.447Z,18.35
2022-11-29T22:38:45.449Z,29.73
2022-11-29T22:41:14.917Z,33.25
2022-11-29T22:43:43.862Z,27.30
2022-11-29T22:46:13.598Z,20.67
2022-11-29T22:48:45.104Z,19.45
2022-11-29T22:51:13.928Z,19.65
2022-11-29T22:53:42.821Z,18.35
2022-11-29T22:56:13.124Z,20.95
2022-11-29T22:58:41.673Z,21.35
2022-11-29T23:01:10.984Z,19.40
2022-11-29T23:03:40.439Z,21.08
2022-11-29T23:06:09.649Z,18.55
2022-11-29T23:08:38.067Z,19.25
2022-11-29T23:11:07.506Z,20.40
2022-11-29T23:13:37.633Z,20.92
2022-11-29T23:16:07.622Z,19.63
2022-11-29T23:18:36.047Z,18.15
2022-11-29T23:21:04.998Z,15.55
2022-11-29T23:23:33.358Z,17.23
2022-11-29T23:26:01.425Z,18.58
2022-11-29T23:28:30.814Z,20.58
2022-11-29T23:31:01.098Z,20.30
2022-11-29T23:33:29.706Z,16.77
2022-11-29T23:36:01.040Z,15.48
2022-11-29T23:38:29.701Z,14.68
2022-11-29T23:40:58.333Z,13.80
2022-11-29T23:43:29.935Z,14.65
2022-11-29T23:45:58.070Z,12.95
2022-11-29T23:48:28.109Z,12.98
2022-11-29T23:50:57.847Z,11.43
2022-11-29T23:53:27.002Z,11.90
2022-11-29T23:55:59.096Z,12.65
2022-11-29T23:58:27.911Z,11.50
